Time;durP1;ratioP1;P1;durP2;ratioP2;P2;SDS_P1;SDS_P2;PMS_P1;PMS_P2;Temp;Humidity;BMP_temperature;BMP_pressure;BME280_temperature;BME280_humidity;BME280_pressure;Samples;Min_cycle;Max_cycle;Signal;HPM_P1;HPM_P2
2023/04/16 00:01:57;;;;;;;;;;;22.30;99.10;;;;;;5097880;28;20203;-67
2023/04/16 00:04:24;;;;;;;;;;;22.30;98.90;;;;;;5098344;28;20066;-62
2023/04/16 00:06:50;;;;;;;;;;;22.30;99.00;;;;;;5097746;28;19916;-68
2023/04/16 00:09:17;;;;;;;;;;;22.30;99.20;;;;;;5096259;28;19907;-67
2023/04/16 00:11:44;;;;;;;;;;;22.40;99.30;;;;;;5097769;28;19908;-70
2023/04/16 00:14:10;;;;;;;;;;;22.40;99.30;;;;;;5096473;28;19915;-70
2023/04/16 00:16:37;;;;;;;;;;;22.50;99.40;;;;;;5098303;28;20070;-69
2023/04/16 00:19:04;;;;;;;;;;;22.50;99.40;;;;;;5095311;28;20469;-61
2023/04/16 00:21:30;;;;;;;;;;;22.60;99.20;;;;;;5098329;28;19920;-64
2023/04/16 00:23:57;;;;;;;;;;;22.60;98.90;;;;;;5096947;28;20087;-67
2023/04/16 00:26:24;;;;;;;;;;;22.60;98.90;;;;;;5097293;28;19946;-61
2023/04/16 00:28:50;;;;;;;;;;;22.70;98.80;;;;;;5096637;28;19907;-67
2023/04/16 00:31:17;;;;;;;;;;;22.80;98.60;;;;;;5096417;28;20067;-69
2023/04/16 00:33:44;;;;;;;;;;;22.90;98.80;;;;;;5097813;28;19914;-65
2023/04/16 00:36:10;;;;;;;;;;;23.00;99.00;;;;;;5095933;28;19994;-63
2023/04/16 00:38:37;;;;;;;;;;;23.00;99.10;;;;;;5097795;28;20298;-70
2023/04/16 00:41:03;;;;;;;;;;;23.10;99.00;;;;;;5095676;28;19999;-66
2023/04/16 00:43:30;;;;;;;;;;;23.30;98.70;;;;;;5098504;28;20269;-68
2023/04/16 00:45:57;;;;;;;;;;;23.30;98.80;;;;;;5097147;28;20109;-68
2023/04/16 00:48:26;;;;;;;;;;;23.30;98.60;;;;;;5077268;28;20655;-69
2023/04/16 00:50:54;;;;;;;;;;;23.30;98.30;;;;;;5091685;28;20435;-65
2023/04/16 00:53:21;;;;;;;;;;;23.30;98.50;;;;;;5088793;28;20125;-63
2023/04/16 00:55:47;;;;;;;;;;;23.30;98.70;;;;;;5076884;28;19919;-63
2023/04/16 00:58:14;;;;;;;;;;;23.30;98.00;;;;;;5074849;28;20663;-69
2023/04/16 01:00:41;;;;;;;;;;;23.30;98.10;;;;;;5064398;28;19959;-66
2023/04/16 01:03:08;;;;;;;;;;;23.20;98.50;;;;;;5083930;28;20623;-64
2023/04/16 01:05:35;;;;;;;;;;;23.30;98.30;;;;;;5098128;28;19911;-67
2023/04/16 01:08:02;;;;;;;;;;;23.30;98.30;;;;;;5082605;28;19908;-71
2023/04/16 01:10:28;;;;;;;;;;;23.20;98.40;;;;;;5076371;28;19969;-71
2023/04/16 01:12:55;;;;;;;;;;;23.30;98.30;;;;;;5076475;28;20338;-65
2023/04/16 01:15:22;;;;;;;;;;;23.30;98.60;;;;;;5075981;28;20280;-67
2023/04/16 01:17:48;;;;;;;;;;;23.30;98.60;;;;;;5077096;28;19908;-64
2023/04/16 01:20:15;;;;;;;;;;;23.40;98.40;;;;;;5074304;28;19956;-68
2023/04/16 01:22:42;;;;;;;;;;;23.40;98.10;;;;;;5076833;28;19920;-66
2023/04/16 01:25:12;;;;;;;;;;;23.60;98.30;;;;;;5074950;28;19908;-66
2023/04/16 01:27:39;;;;;;;;;;;23.70;97.80;;;;;;5077042;28;20366;-71
2023/04/16 01:30:06;;;;;;;;;;;23.80;98.00;;;;;;5076418;28;20316;-72
2023/04/16 01:32:33;;;;;;;;;;;23.90;97.90;;;;;;5076254;28;20094;-69
2023/04/16 01:34:59;;;;;;;;;;;24.00;97.60;;;;;;5075992;28;20200;-64
2023/04/16 01:37:26;;;;;;;;;;;24.10;97.50;;;;;;5075595;28;19961;-70
2023/04/16 01:39:53;;;;;;;;;;;24.30;97.20;;;;;;5077179;28;19908;-65
2023/04/16 01:42:19;;;;;;;;;;;24.30;97.00;;;;;;5074338;28;20057;-66
2023/04/16 01:44:46;;;;;;;;;;;24.40;97.00;;;;;;5076889;28;20379;-71
2023/04/16 01:47:14;;;;;;;;;;;24.40;96.60;;;;;;5074575;28;19908;-65
2023/04/16 01:49:41;;;;;;;;;;;24.50;96.50;;;;;;5058899;28;20387;-68
2023/04/16 01:52:08;;;;;;;;;;;24.60;96.60;;;;;;5075949;28;19919;-72
2023/04/16 01:54:34;;;;;;;;;;;24.70;96.10;;;;;;5074974;28;19908;-70
2023/04/16 01:57:01;;;;;;;;;;;24.70;95.70;;;;;;5076438;28;20341;-71
2023/04/16 01:59:28;;;;;;;;;;;24.70;95.90;;;;;;5074749;28;19939;-65
2023/04/16 02:01:55;;;;;;;;;;;24.80;96.20;;;;;;5077073;28;19916;-70
2023/04/16 02:04:21;;;;;;;;;;;25.00;95.90;;;;;;5074194;28;19908;-66
2023/04/16 02:06:48;;;;;;;;;;;25.20;96.00;;;;;;5080305;28;19909;-65
2023/04/16 02:09:15;;;;;;;;;;;25.40;95.60;;;;;;5078473;28;19930;-72
2023/04/16 02:11:41;;;;;;;;;;;25.70;95.10;;;;;;5080012;28;19912;-70
2023/04/16 02:14:08;;;;;;;;;;;25.70;94.70;;;;;;5079185;28;20017;-65
2023/04/16 02:16:35;;;;;;;;;;;25.80;94.80;;;;;;5078574;28;19908;-67
2023/04/16 02:19:03;;;;;;;;;;;25.90;94.60;;;;;;5080145;28;19912;-66
2023/04/16 02:21:30;;;;;;;;;;;26.00;94.70;;;;;;5078231;28;19924;-68
2023/04/16 02:23:57;;;;;;;;;;;26.10;94.80;;;;;;5080188;28;19920;-66
2023/04/16 02:26:25;;;;;;;;;;;26.30;94.60;;;;;;5077655;28;19961;-65
2023/04/16 02:28:51;;;;;;;;;;;26.40;94.00;;;;;;5080059;28;19916;-68
2023/04/16 02:31:21;;;;;;;;;;;26.40;94.10;;;;;;5079827;28;20018;-69
2023/04/16 02:33:47;;;;;;;;;;;26.30;94.20;;;;;;5080454;28;19908;-71
2023/04/16 02:36:14;;;;;;;;;;;26.10;94.30;;;;;;5080091;28;19954;-72
2023/04/16 02:38:41;;;;;;;;;;;25.70;94.80;;;;;;5077412;28;20187;-64
2023/04/16 02:41:07;;;;;;;;;;;25.50;94.90;;;;;;5080060;28;20008;-68
2023/04/16 02:43:34;;;;;;;;;;;25.30;95.40;;;;;;5077338;28;20021;-65
2023/04/16 02:46:01;;;;;;;;;;;25.10;95.60;;;;;;5080737;28;19919;-68
2023/04/16 02:48:27;;;;;;;;;;;25.10;95.70;;;;;;5076458;28;20072;-66
2023/04/16 02:50:54;;;;;;;;;;;25.20;95.30;;;;;;5079766;28;19999;-68
2023/04/16 02:53:21;;;;;;;;;;;25.40;95.30;;;;;;5078975;28;19919;-65
2023/04/16 02:55:53;;;;;;;;;;;25.40;95.10;;;;;;5078042;28;19912;-62
2023/04/16 02:58:21;;;;;;;;;;;25.40;95.30;;;;;;5080667;28;20001;-69
2023/04/16 03:00:48;;;;;;;;;;;25.40;95.30;;;;;;5077749;28;19935;-69
2023/04/16 03:03:14;;;;;;;;;;;25.30;95.50;;;;;;5079023;28;20180;-69
2023/04/16 03:05:41;;;;;;;;;;;25.20;95.80;;;;;;5076577;28;20192;-67
2023/04/16 03:08:08;;;;;;;;;;;25.10;95.70;;;;;;5079431;28;19912;-64
2023/04/16 03:10:35;;;;;;;;;;;25.00;96.00;;;;;;5077345;28;19908;-68
2023/04/16 03:13:02;;;;;;;;;;;25.00;96.50;;;;;;5078934;28;19912;-69
2023/04/16 03:15:29;;;;;;;;;;;24.80;96.60;;;;;;5077263;28;19908;-66
2023/04/16 03:17:56;;;;;;;;;;;24.80;96.70;;;;;;5080091;28;19912;-65
2023/04/16 03:20:23;;;;;;;;;;;24.60;96.20;;;;;;5078923;28;20277;-69
2023/04/16 03:22:51;;;;;;;;;;;24.60;96.60;;;;;;5077121;28;20015;-66
2023/04/16 03:25:18;;;;;;;;;;;24.60;96.30;;;;;;5060645;28;19909;-65
2023/04/16 03:27:45;;;;;;;;;;;24.50;96.50;;;;;;5076066;28;20072;-66
2023/04/16 03:30:12;;;;;;;;;;;24.40;95.90;;;;;;5079164;28;19951;-61
2023/04/16 03:32:39;;;;;;;;;;;24.40;95.50;;;;;;5075977;28;19908;-62
2023/04/16 03:35:06;;;;;;;;;;;24.40;95.00;;;;;;5078448;28;20280;-66
2023/04/16 03:37:33;;;;;;;;;;;24.30;95.20;;;;;;5077795;28;19912;-64
2023/04/16 03:40:00;;;;;;;;;;;24.30;95.00;;;;;;5078514;28;20006;-66
2023/04/16 03:42:26;;;;;;;;;;;24.30;94.80;;;;;;5079713;28;19916;-64
2023/04/16 03:44:53;;;;;;;;;;;24.40;94.20;;;;;;5075989;28;19908;-68
2023/04/16 03:47:20;;;;;;;;;;;24.50;92.60;;;;;;5078689;28;19931;-67
2023/04/16 03:49:46;;;;;;;;;;;24.80;92.60;;;;;;5078336;28;19912;-65
2023/04/16 03:52:13;;;;;;;;;;;24.90;92.30;;;;;;5077999;28;19961;-66
2023/04/16 03:54:40;;;;;;;;;;;25.10;91.70;;;;;;5079212;28;19908;-61
2023/04/16 03:57:07;;;;;;;;;;;25.30;90.70;;;;;;5075319;28;20106;-67
2023/04/16 03:59:33;;;;;;;;;;;25.30;90.60;;;;;;5078541;28;19915;-66
2023/04/16 04:02:00;;;;;;;;;;;25.30;91.10;;;;;;5075486;28;19916;-66
2023/04/16 04:04:26;;;;;;;;;;;25.80;90.30;;;;;;5078074;28;19915;-67
2023/04/16 04:06:53;;;;;;;;;;;26.00;89.80;;;;;;5075767;28;19915;-65
2023/04/16 04:09:20;;;;;;;;;;;26.30;89.40;;;;;;5078724;28;19915;-64
2023/04/16 04:11:46;;;;;;;;;;;27.30;88.80;;;;;;5078400;28;19908;-64
2023/04/16 04:14:13;;;;;;;;;;;28.90;84.40;;;;;;5076667;28;20090;-70
2023/04/16 04:16:40;;;;;;;;;;;30.70;81.70;;;;;;5059745;28;20109;-63
2023/04/16 04:19:06;;;;;;;;;;;32.10;77.40;;;;;;5076135;28;20399;-63
2023/04/16 04:21:33;;;;;;;;;;;33.20;74.40;;;;;;5078169;28;19958;-69
2023/04/16 04:24:00;;;;;;;;;;;33.80;69.10;;;;;;5074748;28;20314;-67
2023/04/16 04:26:26;;;;;;;;;;;33.90;68.30;;;;;;5078829;28;20108;-65
2023/04/16 04:28:53;;;;;;;;;;;33.70;66.20;;;;;;5076225;28;19939;-66
2023/04/16 04:31:19;;;;;;;;;;;33.90;65.80;;;;;;5076964;28;19987;-70
2023/04/16 04:33:46;;;;;;;;;;;34.10;62.50;;;;;;5078659;28;20295;-70
2023/04/16 04:36:13;;;;;;;;;;;34.10;61.20;;;;;;5074994;28;20068;-68
2023/04/16 04:38:39;;;;;;;;;;;33.40;60.20;;;;;;5077900;28;19953;-68
2023/04/16 04:41:06;;;;;;;;;;;33.30;60.70;;;;;;5077868;28;20349;-69
2023/04/16 04:43:33;;;;;;;;;;;33.50;60.10;;;;;;5075362;28;20237;-67
2023/04/16 04:45:59;;;;;;;;;;;34.00;60.20;;;;;;5077344;28;20518;-69
2023/04/16 04:48:26;;;;;;;;;;;34.60;59.70;;;;;;5075066;28;19931;-64
2023/04/16 04:50:53;;;;;;;;;;;35.40;58.50;;;;;;5077640;28;20341;-68
2023/04/16 04:53:19;;;;;;;;;;;35.90;57.20;;;;;;5075021;28;20375;-68
2023/04/16 04:55:46;;;;;;;;;;;36.00;56.00;;;;;;5077480;28;19916;-65
2023/04/16 04:58:13;;;;;;;;;;;36.30;55.80;;;;;;5077181;28;19911;-65
2023/04/16 05:00:39;;;;;;;;;;;35.90;55.60;;;;;;5076494;28;19912;-62
2023/04/16 05:03:09;;;;;;;;;;;36.00;54.40;;;;;;5077160;28;19908;-68
2023/04/16 05:05:36;;;;;;;;;;;36.40;55.30;;;;;;5074883;28;19908;-70
2023/04/16 05:08:03;;;;;;;;;;;36.60;54.40;;;;;;5077354;28;19915;-61
2023/04/16 05:10:29;;;;;;;;;;;37.30;53.90;;;;;;5074739;28;19916;-66
2023/04/16 05:12:56;;;;;;;;;;;37.80;51.50;;;;;;5077585;28;19908;-66
2023/04/16 05:15:22;;;;;;;;;;;37.50;50.30;;;;;;5074362;28;19908;-60
2023/04/16 05:17:49;;;;;;;;;;;37.50;50.10;;;;;;5076975;28;19958;-62
2023/04/16 05:20:16;;;;;;;;;;;37.60;50.60;;;;;;5076424;28;19917;-65
2023/04/16 05:22:42;;;;;;;;;;;37.70;50.20;;;;;;5076408;28;20098;-63
2023/04/16 05:25:09;;;;;;;;;;;37.30;50.30;;;;;;5077055;28;19918;-67
2023/04/16 05:27:36;;;;;;;;;;;37.20;49.60;;;;;;5074187;28;20086;-62
2023/04/16 05:30:03;;;;;;;;;;;36.90;50.10;;;;;;5059475;28;19916;-62
2023/04/16 05:32:29;;;;;;;;;;;37.10;50.40;;;;;;5074664;28;19953;-63
2023/04/16 05:34:56;;;;;;;;;;;37.10;49.80;;;;;;5076786;28;19915;-66
2023/04/16 05:37:23;;;;;;;;;;;37.30;50.00;;;;;;5074588;28;20549;-63
2023/04/16 05:39:50;;;;;;;;;;;37.20;49.50;;;;;;5079643;28;19908;-62
2023/04/16 05:42:16;;;;;;;;;;;37.10;49.70;;;;;;5062947;28;19920;-63
2023/04/16 05:44:43;;;;;;;;;;;36.60;49.40;;;;;;5078448;28;20136;-62
2023/04/16 05:47:09;;;;;;;;;;;36.20;50.10;;;;;;5080625;28;19915;-63
2023/04/16 05:49:36;;;;;;;;;;;35.80;49.70;;;;;;5078169;28;19909;-62
2023/04/16 05:52:03;;;;;;;;;;;36.00;50.10;;;;;;5081302;28;20385;-65
2023/04/16 05:54:30;;;;;;;;;;;35.70;49.80;;;;;;5078103;28;19947;-65
2023/04/16 05:56:56;;;;;;;;;;;36.10;49.80;;;;;;5080543;28;19957;-64
2023/04/16 05:59:23;;;;;;;;;;;36.40;49.40;;;;;;5079882;28;19916;-66
2023/04/16 06:01:50;;;;;;;;;;;36.40;49.60;;;;;;5079764;28;19916;-64
2023/04/16 06:04:16;;;;;;;;;;;36.80;50.00;;;;;;5080800;28;19961;-62
2023/04/16 06:06:43;;;;;;;;;;;36.90;49.20;;;;;;5077245;28;20601;-64
2023/04/16 06:09:10;;;;;;;;;;;36.90;49.80;;;;;;5080626;28;19912;-67
2023/04/16 06:11:37;;;;;;;;;;;36.90;49.30;;;;;;5077899;28;19977;-62
2023/04/16 06:14:03;;;;;;;;;;;37.20;49.30;;;;;;5080520;28;19908;-63
2023/04/16 06:16:30;;;;;;;;;;;36.50;49.20;;;;;;5077738;28;19908;-65
2023/04/16 06:18:56;;;;;;;;;;;35.90;49.70;;;;;;5080450;28;19987;-66
2023/04/16 06:21:23;;;;;;;;;;;35.30;50.00;;;;;;5080476;28;19939;-64
2023/04/16 06:23:50;;;;;;;;;;;34.80;50.90;;;;;;5078467;28;20142;-67
2023/04/16 06:26:17;;;;;;;;;;;34.50;51.90;;;;;;5080325;28;19908;-66
2023/04/16 06:28:43;;;;;;;;;;;34.60;52.60;;;;;;5076826;28;19959;-67
2023/04/16 06:31:10;;;;;;;;;;;34.80;49.90;;;;;;5082035;28;20069;-63
2023/04/16 06:33:37;;;;;;;;;;;35.10;50.70;;;;;;5077157;28;19916;-63
2023/04/16 06:36:03;;;;;;;;;;;34.90;49.80;;;;;;5079611;28;19919;-66
2023/04/16 06:38:30;;;;;;;;;;;34.40;50.30;;;;;;5079350;28;20111;-69
2023/04/16 06:40:58;;;;;;;;;;;33.90;50.90;;;;;;5079248;28;19917;-65
2023/04/16 06:43:25;;;;;;;;;;;33.80;51.00;;;;;;5081053;28;19915;-65
2023/04/16 06:45:51;;;;;;;;;;;33.50;49.90;;;;;;5077535;28;19995;-66
2023/04/16 06:48:18;;;;;;;;;;;32.90;50.30;;;;;;5079707;28;19908;-64
2023/04/16 06:50:45;;;;;;;;;;;32.50;50.20;;;;;;5076696;28;19999;-64
2023/04/16 06:53:11;;;;;;;;;;;31.20;50.90;;;;;;5079662;28;19908;-66
2023/04/16 06:55:38;;;;;;;;;;;29.90;52.20;;;;;;5077566;28;20360;-68
2023/04/16 06:58:04;;;;;;;;;;;28.60;53.80;;;;;;5079656;28;19935;-62
2023/04/16 07:00:31;;;;;;;;;;;27.40;55.40;;;;;;5079198;28;19974;-64
2023/04/16 07:03:00;;;;;;;;;;;26.40;56.10;;;;;;5077718;28;20263;-63
2023/04/16 07:05:26;;;;;;;;;;;25.70;57.50;;;;;;5079455;28;19947;-64
2023/04/16 07:07:56;;;;;;;;;;;25.10;58.00;;;;;;5077114;28;19915;-65
2023/04/16 07:10:22;;;;;;;;;;;24.50;58.60;;;;;;5079937;28;20128;-62
2023/04/16 07:12:49;;;;;;;;;;;24.00;58.50;;;;;;5076412;28;20273;-63
2023/04/16 07:15:16;;;;;;;;;;;23.70;59.70;;;;;;5080048;28;19915;-63
2023/04/16 07:17:42;;;;;;;;;;;23.40;59.60;;;;;;5076170;28;19909;-69
2023/04/16 07:20:09;;;;;;;;;;;23.20;59.80;;;;;;5079005;28;20307;-66
2023/04/16 07:22:36;;;;;;;;;;;23.00;60.30;;;;;;5078762;28;19927;-62
2023/04/16 07:25:03;;;;;;;;;;;22.80;60.80;;;;;;5077837;28;19915;-67
2023/04/16 07:27:30;;;;;;;;;;;22.70;60.90;;;;;;5079478;28;19951;-64
2023/04/16 07:29:56;;;;;;;;;;;22.60;62.00;;;;;;5075553;28;19908;-62
2023/04/16 07:32:23;;;;;;;;;;;22.50;61.50;;;;;;5079462;28;20315;-62
2023/04/16 07:34:50;;;;;;;;;;;22.40;62.20;;;;;;5076827;28;19957;-63
2023/04/16 07:37:16;;;;;;;;;;;22.30;62.50;;;;;;5078589;28;20357;-62
2023/04/16 07:39:43;;;;;;;;;;;22.20;62.80;;;;;;5077141;28;19915;-61
2023/04/16 07:42:10;;;;;;;;;;;22.10;62.80;;;;;;5078949;28;19979;-61
2023/04/16 07:44:36;;;;;;;;;;;22.00;63.30;;;;;;5078328;28;19908;-64
2023/04/16 07:47:03;;;;;;;;;;;22.00;63.60;;;;;;5077334;28;19908;-61
2023/04/16 07:49:30;;;;;;;;;;;21.80;63.60;;;;;;5078511;28;19981;-65
2023/04/16 07:51:57;;;;;;;;;;;21.80;64.10;;;;;;5058037;28;20100;-66
2023/04/16 07:54:23;;;;;;;;;;;21.70;64.90;;;;;;5078797;28;19909;-66
2023/04/16 07:56:50;;;;;;;;;;;21.60;64.70;;;;;;5075680;28;19912;-67
2023/04/16 07:59:17;;;;;;;;;;;21.60;64.40;;;;;;5079433;28;20076;-65
2023/04/16 08:01:43;;;;;;;;;;;21.50;64.80;;;;;;5076506;28;19916;-62
2023/04/16 08:04:10;;;;;;;;;;;21.40;64.60;;;;;;5078681;28;19908;-62
2023/04/16 08:06:37;;;;;;;;;;;21.30;64.20;;;;;;5079279;28;20304;-62
2023/04/16 08:09:03;;;;;;;;;;;21.30;64.60;;;;;;5074592;28;20179;-64
2023/04/16 08:11:30;;;;;;;;;;;21.20;64.60;;;;;;5079348;28;20064;-61
2023/04/16 08:13:57;;;;;;;;;;;21.20;63.90;;;;;;5075221;28;19954;-61
2023/04/16 08:16:23;;;;;;;;;;;21.20;63.80;;;;;;5078056;28;19977;-63
2023/04/16 08:18:50;;;;;;;;;;;21.10;63.30;;;;;;5057931;28;20275;-64
2023/04/16 08:21:17;;;;;;;;;;;21.00;63.50;;;;;;5077699;28;20379;-65
2023/04/16 08:23:43;;;;;;;;;;;21.10;63.50;;;;;;5078637;28;19927;-66
2023/04/16 08:26:10;;;;;;;;;;;21.10;63.70;;;;;;5076879;28;20067;-61
2023/04/16 08:28:37;;;;;;;;;;;21.00;63.70;;;;;;5077607;28;19915;-65
2023/04/16 08:31:03;;;;;;;;;;;20.90;63.70;;;;;;5076337;28;20068;-65
2023/04/16 08:33:30;;;;;;;;;;;20.80;63.80;;;;;;5078103;28;19945;-63
2023/04/16 08:35:56;;;;;;;;;;;20.80;64.20;;;;;;5076557;28;20080;-66
2023/04/16 08:38:23;;;;;;;;;;;20.80;64.30;;;;;;5077204;28;19919;-64
2023/04/16 08:40:50;;;;;;;;;;;20.70;64.30;;;;;;5076148;28;19912;-64
2023/04/16 08:43:17;;;;;;;;;;;20.70;64.30;;;;;;5077851;28;20375;-66
2023/04/16 08:45:47;;;;;;;;;;;20.60;64.60;;;;;;5078147;28;19972;-68
2023/04/16 08:48:14;;;;;;;;;;;20.60;64.80;;;;;;5076519;28;20383;-66
2023/04/16 08:50:41;;;;;;;;;;;20.50;65.40;;;;;;5078351;28;19919;-68
2023/04/16 08:53:10;;;;;;;;;;;20.50;65.40;;;;;;5074449;28;20545;-65
2023/04/16 08:55:38;;;;;;;;;;;20.40;65.60;;;;;;5079482;28;19908;-67
2023/04/16 08:58:11;;;;;;;;;;;20.40;66.60;;;;;;5074489;28;19991;-65
2023/04/16 09:00:39;;;;;;;;;;;20.30;67.00;;;;;;5078362;28;19908;-68
2023/04/16 09:03:07;;;;;;;;;;;20.20;67.10;;;;;;5075450;28;19913;-64
2023/04/16 09:05:34;;;;;;;;;;;20.10;66.60;;;;;;5077937;28;19997;-63
2023/04/16 09:08:01;;;;;;;;;;;20.10;68.00;;;;;;5074604;28;19908;-67
2023/04/16 09:10:27;;;;;;;;;;;20.10;67.20;;;;;;5076896;28;19908;-63
2023/04/16 09:12:57;;;;;;;;;;;20.00;67.20;;;;;;5076615;28;20249;-62
2023/04/16 09:15:28;;;;;;;;;;;20.00;67.50;;;;;;5081679;28;19915;-61
2023/04/16 09:17:56;;;;;;;;;;;20.00;67.20;;;;;;5080825;28;19908;-60
2023/04/16 09:20:23;;;;;;;;;;;20.00;67.20;;;;;;5081535;28;19943;-69
2023/04/16 09:22:50;;;;;;;;;;;20.10;67.50;;;;;;5081934;28;19920;-63
2023/04/16 09:25:16;;;;;;;;;;;20.00;68.60;;;;;;5079014;28;20095;-64
2023/04/16 09:27:43;;;;;;;;;;;20.00;67.60;;;;;;5081734;28;19908;-66
2023/04/16 09:30:23;;;;;;;;;;;20.00;67.50;;;;;;5077908;28;20341;-63
2023/04/16 09:32:50;;;;;;;;;;;20.00;67.80;;;;;;5082132;28;19908;-62
2023/04/16 09:35:20;;;;;;;;;;;20.00;68.80;;;;;;5077677;28;19961;-63
2023/04/16 09:37:56;;;;;;;;;;;19.90;68.30;;;;;;5081191;28;19915;-65
2023/04/16 09:40:29;;;;;;;;;;;19.90;68.40;;;;;;5080720;28;19915;-61
2023/04/16 09:42:59;;;;;;;;;;;19.80;68.60;;;;;;5080618;28;20023;-63
2023/04/16 09:45:30;;;;;;;;;;;19.80;69.30;;;;;;5080497;28;20007;-61
2023/04/16 09:48:01;;;;;;;;;;;19.80;68.80;;;;;;5080622;28;20338;-65
2023/04/16 09:50:28;;;;;;;;;;;19.80;69.10;;;;;;5080274;28;19915;-66
2023/04/16 09:52:55;;;;;;;;;;;19.70;69.30;;;;;;5082264;28;20379;-62
2023/04/16 09:55:26;;;;;;;;;;;19.70;69.60;;;;;;5078659;28;20075;-66
2023/04/16 09:58:02;;;;;;;;;;;19.60;70.00;;;;;;5082922;28;19962;-62
2023/04/16 10:00:30;;;;;;;;;;;19.60;69.70;;;;;;5080228;28;19981;-68
2023/04/16 10:03:04;;;;;;;;;;;19.60;71.30;;;;;;5082071;28;19908;-66
2023/04/16 10:05:31;;;;;;;;;;;19.50;70.80;;;;;;5081818;28;20356;-63
2023/04/16 10:08:00;;;;;;;;;;;19.50;70.90;;;;;;5080766;28;19908;-68
2023/04/16 10:10:26;;;;;;;;;;;19.40;71.10;;;;;;5078584;28;19908;-67
2023/04/16 10:12:54;;;;;;;;;;;19.30;71.30;;;;;;5080498;28;20408;-68
2023/04/16 10:15:21;;;;;;;;;;;19.30;72.30;;;;;;5077168;28;19908;-63
2023/04/16 10:17:48;;;;;;;;;;;19.30;71.80;;;;;;5081844;28;20046;-68
2023/04/16 10:20:15;;;;;;;;;;;19.30;72.20;;;;;;5077501;28;19915;-64
2023/04/16 10:22:42;;;;;;;;;;;19.20;72.90;;;;;;5081093;28;20023;-66
2023/04/16 10:25:10;;;;;;;;;;;19.20;73.10;;;;;;5077288;28;20334;-63
2023/04/16 10:27:37;;;;;;;;;;;19.10;72.40;;;;;;5079768;28;19912;-67
2023/04/16 10:30:05;;;;;;;;;;;19.10;72.70;;;;;;5081296;28;19904;-67
2023/04/16 10:32:32;;;;;;;;;;;19.10;72.70;;;;;;5078916;28;19953;-68
2023/04/16 10:34:58;;;;;;;;;;;19.10;73.70;;;;;;5081242;28;20211;-61
2023/04/16 10:37:32;;;;;;;;;;;19.00;73.20;;;;;;5076796;28;19989;-64
2023/04/16 10:39:58;;;;;;;;;;;19.00;73.50;;;;;;5079607;28;20261;-62
2023/04/16 10:42:26;;;;;;;;;;;18.90;74.00;;;;;;5077370;28;19916;-64
2023/04/16 10:44:52;;;;;;;;;;;18.90;75.00;;;;;;5080470;28;20007;-65
2023/04/16 10:47:24;;;;;;;;;;;18.90;74.90;;;;;;5077783;28;20365;-64
2023/04/16 10:49:51;;;;;;;;;;;18.90;74.60;;;;;;5080430;28;19969;-64
2023/04/16 10:52:18;;;;;;;;;;;18.80;75.00;;;;;;5076895;28;19914;-65
2023/04/16 10:54:47;;;;;;;;;;;18.80;75.60;;;;;;5080285;28;20203;-63
2023/04/16 10:57:17;;;;;;;;;;;18.80;76.90;;;;;;5077727;28;20201;-63
2023/04/16 10:59:44;;;;;;;;;;;18.80;76.90;;;;;;5080139;28;19916;-61
2023/04/16 11:02:16;;;;;;;;;;;18.70;77.20;;;;;;5078770;28;20353;-61
2023/04/16 11:04:44;;;;;;;;;;;18.70;77.20;;;;;;5079612;28;20174;-64
2023/04/16 11:07:13;;;;;;;;;;;18.70;77.40;;;;;;5079977;28;19908;-64
2023/04/16 11:09:52;;;;;;;;;;;18.60;78.00;;;;;;5079053;28;19912;-68
2023/04/16 11:12:20;;;;;;;;;;;18.50;77.70;;;;;;5076437;28;20336;-63
2023/04/16 11:14:48;;;;;;;;;;;18.50;78.40;;;;;;5079313;28;20060;-66
2023/04/16 11:17:14;;;;;;;;;;;18.50;78.30;;;;;;5077840;28;19912;-69
2023/04/16 11:19:42;;;;;;;;;;;18.40;79.00;;;;;;5062030;28;20422;-65
2023/04/16 11:22:11;;;;;;;;;;;18.40;79.30;;;;;;5079244;28;20284;-65
2023/04/16 11:24:39;;;;;;;;;;;18.40;79.00;;;;;;5077553;28;20092;-64
2023/04/16 11:27:11;;;;;;;;;;;18.40;79.20;;;;;;5079719;28;20745;-67
2023/04/16 11:29:38;;;;;;;;;;;18.30;79.90;;;;;;5076159;28;20127;-65
2023/04/16 11:32:05;;;;;;;;;;;18.30;80.30;;;;;;5079966;28;19912;-67
2023/04/16 11:34:32;;;;;;;;;;;18.20;81.10;;;;;;5075960;28;20284;-63
2023/04/16 11:36:58;;;;;;;;;;;18.30;82.20;;;;;;5078926;28;19996;-62
2023/04/16 11:39:25;;;;;;;;;;;18.20;81.60;;;;;;5076709;28;19908;-65
2023/04/16 11:41:52;;;;;;;;;;;18.20;82.10;;;;;;5078602;28;19919;-66
2023/04/16 11:44:21;;;;;;;;;;;18.10;82.40;;;;;;5078456;28;19941;-64
2023/04/16 11:46:49;;;;;;;;;;;18.10;82.80;;;;;;5078797;28;20002;-66
2023/04/16 11:49:18;;;;;;;;;;;18.00;82.90;;;;;;5078880;28;19916;-65
2023/04/16 11:51:46;;;;;;;;;;;17.90;82.70;;;;;;5078875;28;20292;-64
2023/04/16 11:54:23;;;;;;;;;;;17.90;82.90;;;;;;5079053;28;20448;-64
2023/04/16 11:56:50;;;;;;;;;;;17.80;83.40;;;;;;5079331;28;20349;-63
2023/04/16 11:59:18;;;;;;;;;;;17.90;82.80;;;;;;5078851;28;19912;-64
2023/04/16 12:01:48;;;;;;;;;;;17.80;83.80;;;;;;5076872;28;19955;-66
2023/04/16 12:04:16;;;;;;;;;;;17.80;83.90;;;;;;5079663;28;20195;-65
2023/04/16 12:07:05;;;;;;;;;;;17.80;84.80;;;;;;5075289;28;20193;-64
2023/04/16 12:09:33;;;;;;;;;;;17.80;84.30;;;;;;5071283;28;19912;-67
2023/04/16 12:12:00;;;;;;;;;;;17.70;84.30;;;;;;5078150;28;19935;-68
2023/04/16 12:14:27;;;;;;;;;;;17.70;84.30;;;;;;5075109;28;20345;-66
2023/04/16 12:16:55;;;;;;;;;;;17.60;84.50;;;;;;5078951;28;20557;-67
2023/04/16 12:19:21;;;;;;;;;;;17.60;84.10;;;;;;5077856;28;19916;-67
2023/04/16 12:21:49;;;;;;;;;;;17.60;85.10;;;;;;5076816;28;19916;-63
2023/04/16 12:24:19;;;;;;;;;;;17.60;85.10;;;;;;5078149;28;19920;-69
2023/04/16 12:26:47;;;;;;;;;;;17.50;85.80;;;;;;5075197;28;20425;-68
2023/04/16 12:29:22;;;;;;;;;;;17.50;85.10;;;;;;5079059;28;19915;-61
2023/04/16 12:31:49;;;;;;;;;;;17.50;85.20;;;;;;5075345;28;20076;-63
2023/04/16 12:34:17;;;;;;;;;;;17.40;85.60;;;;;;5078850;28;20357;-61
2023/04/16 12:36:44;;;;;;;;;;;17.40;86.80;;;;;;5075595;28;20078;-64
2023/04/16 12:39:11;;;;;;;;;;;17.40;85.90;;;;;;5078103;28;20277;-63
2023/04/16 12:41:39;;;;;;;;;;;17.40;86.60;;;;;;5075941;28;20380;-63
2023/04/16 12:44:13;;;;;;;;;;;17.40;86.50;;;;;;5078053;28;19940;-65
2023/04/16 12:46:41;;;;;;;;;;;17.30;86.40;;;;;;5076850;28;19981;-63
2023/04/16 12:49:08;;;;;;;;;;;17.30;86.50;;;;;;5076835;28;20082;-65
2023/04/16 12:51:35;;;;;;;;;;;17.30;86.60;;;;;;5074585;28;19916;-61
2023/04/16 12:54:06;;;;;;;;;;;17.30;87.30;;;;;;5078376;28;19919;-66
2023/04/16 12:56:34;;;;;;;;;;;17.30;87.60;;;;;;5075248;28;20102;-64
2023/04/16 12:59:01;;;;;;;;;;;17.30;87.00;;;;;;5078212;28;20156;-62
2023/04/16 13:01:28;;;;;;;;;;;17.30;87.70;;;;;;5078169;28;19916;-61
2023/04/16 13:03:55;;;;;;;;;;;17.30;87.70;;;;;;5075562;28;20223;-62
2023/04/16 13:06:21;;;;;;;;;;;17.20;88.00;;;;;;5078165;28;19916;-67
2023/04/16 13:08:48;;;;;;;;;;;17.20;88.10;;;;;;5074514;28;20269;-63
2023/04/16 13:11:15;;;;;;;;;;;17.10;88.80;;;;;;5078076;28;19995;-67
2023/04/16 13:13:41;;;;;;;;;;;17.10;90.10;;;;;;5075326;28;19909;-66
2023/04/16 13:16:08;;;;;;;;;;;17.10;89.60;;;;;;5059106;28;20269;-60
2023/04/16 13:18:36;;;;;;;;;;;17.10;90.30;;;;;;5076117;28;19916;-63
2023/04/16 13:21:03;;;;;;;;;;;17.00;90.30;;;;;;5077539;28;19916;-68
2023/04/16 13:23:29;;;;;;;;;;;17.00;90.10;;;;;;5077939;28;20386;-67
2023/04/16 13:25:56;;;;;;;;;;;16.90;90.30;;;;;;5075799;28;19966;-64
2023/04/16 13:28:23;;;;;;;;;;;17.00;90.80;;;;;;5077488;28;19908;-68
2023/04/16 13:30:50;;;;;;;;;;;16.90;90.90;;;;;;5057083;28;20349;-64
2023/04/16 13:33:16;;;;;;;;;;;16.80;90.90;;;;;;5077682;28;20444;-64
2023/04/16 13:35:43;;;;;;;;;;;16.80;91.10;;;;;;5074668;28;20106;-64
2023/04/16 13:38:10;;;;;;;;;;;16.70;91.40;;;;;;5076572;28;20076;-66
2023/04/16 13:40:37;;;;;;;;;;;16.70;91.40;;;;;;5058228;28;19908;-63
2023/04/16 13:43:04;;;;;;;;;;;16.60;91.40;;;;;;5076106;28;19971;-64
2023/04/16 13:45:30;;;;;;;;;;;16.60;91.60;;;;;;5077559;28;19999;-68
2023/04/16 13:47:57;;;;;;;;;;;16.60;92.00;;;;;;5073836;28;20319;-64
2023/04/16 13:50:24;;;;;;;;;;;16.50;91.90;;;;;;5077382;28;19916;-67
2023/04/16 13:52:50;;;;;;;;;;;16.50;92.10;;;;;;5077525;28;19969;-64
2023/04/16 13:55:20;;;;;;;;;;;16.50;92.30;;;;;;5076029;28;20087;-69
2023/04/16 13:57:48;;;;;;;;;;;16.50;92.70;;;;;;5077398;28;19908;-67
2023/04/16 14:00:15;;;;;;;;;;;16.40;92.80;;;;;;5074477;28;20614;-66
2023/04/16 14:02:44;;;;;;;;;;;16.40;92.50;;;;;;5080959;28;19970;-65
2023/04/16 14:05:11;;;;;;;;;;;16.40;92.90;;;;;;5078198;28;19931;-65
2023/04/16 14:07:38;;;;;;;;;;;16.40;93.00;;;;;;5080930;28;19908;-67
2023/04/16 14:10:04;;;;;;;;;;;16.40;93.10;;;;;;5078662;28;20410;-61
2023/04/16 14:12:31;;;;;;;;;;;16.40;93.10;;;;;;5061287;28;20398;-63
2023/04/16 14:14:58;;;;;;;;;;;16.40;93.30;;;;;;5079481;28;19955;-64
2023/04/16 14:17:24;;;;;;;;;;;16.30;93.00;;;;;;5079295;28;19989;-66